createdAt,value
2022-11-10T00:02:37.056Z,73.22
2022-11-10T00:05:23.052Z,74.47
2022-11-10T00:08:12.304Z,69.80
2022-11-10T00:10:58.836Z,68.10
2022-11-10T00:17:02.184Z,71.32
2022-11-10T00:19:47.939Z,73.85
2022-11-10T00:28:06.911Z,56.70
2022-11-10T00:30:52.846Z,52.95
2022-11-10T00:36:27.463Z,52.35
2022-11-10T00:39:13.492Z,52.28
2022-11-10T00:44:45.328Z,48.92
2022-11-10T00:47:31.681Z,52.50
2022-11-10T00:50:17.913Z,54.55
2022-11-10T00:55:50.708Z,50.03
2022-11-10T00:58:37.050Z,51.30
2022-11-10T01:01:25.668Z,54.00
2022-11-10T01:04:11.776Z,61.08
2022-11-10T01:06:57.666Z,48.75
2022-11-10T01:09:43.480Z,47.67
2022-11-10T01:12:31.443Z,48.17
2022-11-10T01:15:17.636Z,45.75
2022-11-10T01:18:03.876Z,76.78
2022-11-10T01:23:38.948Z,90.28
2022-11-10T01:29:11.771Z,74.13
2022-11-10T01:31:57.733Z,73.85
2022-11-10T01:34:43.624Z,78.72
2022-11-10T01:37:29.656Z,99.30
2022-11-10T01:40:15.659Z,97.97
2022-11-10T01:43:01.245Z,115.50
2022-11-10T01:46:07.365Z,122.82
2022-11-10T01:49:01.184Z,113.45
2022-11-10T01:52:04.414Z,94.57
2022-11-10T01:54:51.083Z,80.55
2022-11-10T01:57:38.012Z,66.38
2022-11-10T02:00:24.211Z,63.05
2022-11-10T02:03:51.459Z,59.92
2022-11-10T02:06:45.321Z,55.67
2022-11-10T02:09:31.230Z,55.38
2022-11-10T02:12:36.632Z,80.53
2022-11-10T02:18:10.109Z,72.80
2022-11-10T02:20:55.983Z,48.90
2022-11-10T02:23:51.195Z,48.97
2022-11-10T02:27:09.802Z,53.47
2022-11-10T02:29:55.876Z,49.78
2022-11-10T02:35:28.132Z,49.00
2022-11-10T02:38:14.919Z,42.42
2022-11-10T02:41:01.044Z,42.97
2022-11-10T02:43:47.276Z,43.58
2022-11-10T02:49:19.012Z,46.22
2022-11-10T02:52:05.212Z,49.22
2022-11-10T02:54:51.000Z,42.95
2022-11-10T02:57:38.031Z,49.38
2022-11-10T03:00:24.456Z,44.33
2022-11-10T03:03:10.331Z,50.40
2022-11-10T03:08:42.102Z,47.10
2022-11-10T03:11:31.952Z,52.10
2022-11-10T03:14:18.482Z,50.78
2022-11-10T03:17:04.296Z,48.20
2022-11-10T03:19:51.096Z,51.97
2022-11-10T03:22:37.132Z,49.10
2022-11-10T03:25:23.006Z,47.95
2022-11-10T03:28:09.240Z,49.35
2022-11-10T03:30:55.208Z,47.25
2022-11-10T03:33:40.778Z,46.92
2022-11-10T03:36:26.955Z,47.83
2022-11-10T03:41:58.919Z,53.55
2022-11-10T03:44:44.709Z,51.75
2022-11-10T03:47:30.582Z,51.70
2022-11-10T03:50:17.459Z,51.10
2022-11-10T03:53:03.236Z,50.17
2022-11-10T03:55:48.847Z,54.28
2022-11-10T03:58:34.843Z,53.53
2022-11-10T04:04:26.335Z,54.25
2022-11-10T04:07:33.554Z,59.45
2022-11-10T04:10:19.683Z,57.10
2022-11-10T04:13:23.898Z,60.53
2022-11-10T04:16:10.282Z,59.72
2022-11-10T04:18:56.154Z,59.30
2022-11-10T04:21:42.427Z,57.13
2022-11-10T04:24:28.180Z,61.58
2022-11-10T04:29:59.526Z,53.70
2022-11-10T04:32:45.371Z,55.38
2022-11-10T04:35:31.452Z,59.22
2022-11-10T04:41:04.404Z,61.35
2022-11-10T04:43:50.464Z,60.95
2022-11-10T04:46:40.166Z,65.50
2022-11-10T04:49:26.415Z,74.57
2022-11-10T04:52:12.391Z,73.15
2022-11-10T04:54:58.263Z,77.28
2022-11-10T04:57:44.077Z,82.05
2022-11-10T05:03:16.522Z,92.27
2022-11-10T05:06:02.127Z,98.53
2022-11-10T05:08:48.162Z,94.93
2022-11-10T05:11:33.618Z,88.47
2022-11-10T05:14:19.406Z,86.72
2022-11-10T05:17:05.248Z,90.05
2022-11-10T05:19:51.641Z,78.43
2022-11-10T05:25:23.181Z,83.10
2022-11-10T05:28:12.923Z,78.20
2022-11-10T05:30:58.586Z,82.05
2022-11-10T05:33:44.500Z,80.25
2022-11-10T05:36:30.604Z,85.10
2022-11-10T05:42:02.128Z,66.93
2022-11-10T05:47:37.721Z,62.13
2022-11-10T05:50:24.836Z,66.00
2022-11-10T05:53:11.694Z,65.13
2022-11-10T05:55:57.689Z,67.05
2022-11-10T05:58:43.493Z,68.53
2022-11-10T06:01:29.276Z,69.20
2022-11-10T06:04:15.063Z,70.75
2022-11-10T06:07:00.861Z,66.72
2022-11-10T06:09:48.373Z,60.47
2022-11-10T06:12:33.964Z,64.15
2022-11-10T06:15:20.539Z,61.45
2022-11-10T06:18:06.817Z,64.47
2022-11-10T06:23:38.409Z,61.22
2022-11-10T06:26:24.310Z,65.63
2022-11-10T06:29:10.136Z,59.28
2022-11-10T06:31:56.176Z,63.00
2022-11-10T06:34:42.395Z,60.15
2022-11-10T06:37:28.076Z,65.70
2022-11-10T06:43:01.602Z,60.97
2022-11-10T06:45:47.320Z,61.17
2022-11-10T06:51:18.968Z,59.35
2022-11-10T06:54:05.164Z,59.05
2022-11-10T06:56:50.867Z,66.78
2022-11-10T06:59:36.726Z,60.42
2022-11-10T07:05:08.922Z,56.58
2022-11-10T07:07:54.826Z,65.75
2022-11-10T07:10:40.636Z,67.90
2022-11-10T07:13:26.546Z,70.38
2022-11-10T07:16:12.790Z,69.70
2022-11-10T07:18:58.557Z,66.53
2022-11-10T07:21:44.243Z,72.75
2022-11-10T07:24:30.531Z,63.58
2022-11-10T07:27:16.617Z,63.00
2022-11-10T07:33:18.164Z,62.33
2022-11-10T07:36:05.135Z,67.90
2022-11-10T07:38:50.824Z,70.60
2022-11-10T07:41:36.879Z,67.72
2022-11-10T07:44:22.577Z,72.05
2022-11-10T07:47:08.615Z,75.75
2022-11-10T07:49:54.522Z,72.63
2022-11-10T07:52:40.827Z,78.80
2022-11-10T07:55:26.581Z,74.78
2022-11-10T07:58:16.778Z,67.93
2022-11-10T08:01:02.764Z,75.20
2022-11-10T08:06:36.510Z,72.15
2022-11-10T08:09:22.760Z,72.43
2022-11-10T08:12:08.796Z,72.95
2022-11-10T08:14:54.650Z,68.28
2022-11-10T08:20:26.761Z,70.25
2022-11-10T08:23:12.840Z,67.35
2022-11-10T08:26:01.181Z,64.72
2022-11-10T08:28:46.898Z,63.25
2022-11-10T08:31:34.103Z,65.32
2022-11-10T08:34:19.965Z,62.65
2022-11-10T08:37:05.687Z,62.72
2022-11-10T08:42:37.418Z,57.25
2022-11-10T08:45:23.352Z,52.60
2022-11-10T08:48:19.043Z,50.20
2022-11-10T08:51:05.284Z,51.17
2022-11-10T08:53:51.475Z,48.33
2022-11-10T08:56:37.329Z,45.58
2022-11-10T08:59:23.185Z,46.83
2022-11-10T09:02:10.558Z,50.08
2022-11-10T09:04:56.570Z,47.22
2022-11-10T09:07:50.458Z,62.53
2022-11-10T09:10:40.376Z,57.90
2022-11-10T09:13:30.273Z,59.58
2022-11-10T09:16:16.751Z,64.30
2022-11-10T09:19:02.586Z,53.70
2022-11-10T09:21:48.368Z,64.57
2022-11-10T09:24:34.297Z,65.10
2022-11-10T09:27:20.502Z,64.18
2022-11-10T09:33:01.945Z,63.42
2022-11-10T09:38:35.092Z,66.35
2022-11-10T09:41:21.091Z,62.97
2022-11-10T09:47:55.713Z,57.83
2022-11-10T09:51:02.069Z,63.47
2022-11-10T09:54:25.753Z,62.63
2022-11-10T09:57:19.098Z,60.10
2022-11-10T10:00:05.647Z,61.50
2022-11-10T10:03:01.043Z,59.72
2022-11-10T10:06:11.447Z,59.63
2022-11-10T10:09:25.671Z,62.58
2022-11-10T10:12:51.719Z,59.42
2022-11-10T10:16:06.440Z,62.28
2022-11-10T10:19:21.066Z,59.50
2022-11-10T10:23:11.297Z,61.60
2022-11-10T10:25:57.411Z,61.15
2022-11-10T10:28:50.045Z,64.35
2022-11-10T10:31:51.472Z,63.08
2022-11-10T10:34:37.716Z,60.60
2022-11-10T10:37:53.971Z,57.20
2022-11-10T10:40:40.838Z,62.22
2022-11-10T10:43:26.800Z,53.47
2022-11-10T10:46:20.210Z,54.67
2022-11-10T10:49:30.445Z,51.13
2022-11-10T10:52:24.730Z,48.95
2022-11-10T10:55:14.072Z,50.30
2022-11-10T10:58:25.739Z,50.55
2022-11-10T11:01:18.112Z,46.72
2022-11-10T11:04:37.485Z,51.90
2022-11-10T11:07:25.187Z,54.65
2022-11-10T11:10:27.251Z,55.28
2022-11-10T11:13:27.291Z,55.35
2022-11-10T11:16:13.418Z,54.55
2022-11-10T11:22:06.905Z,51.45
2022-11-10T11:25:37.331Z,53.50
2022-11-10T11:28:53.752Z,51.53
2022-11-10T11:32:37.734Z,51.33
2022-11-10T11:35:37.978Z,56.17
2022-11-10T11:38:53.979Z,50.85
2022-11-10T11:42:12.114Z,49.75
2022-11-10T11:45:16.748Z,52.05
2022-11-10T11:48:34.986Z,50.65
2022-11-10T11:52:08.569Z,49.17
2022-11-10T11:55:34.712Z,52.65
2022-11-10T11:58:28.878Z,48.03
2022-11-10T12:01:48.100Z,46.25
2022-11-10T12:05:03.312Z,50.28
2022-11-10T12:08:41.402Z,53.42
2022-11-10T12:12:02.827Z,52.92
2022-11-10T12:15:16.857Z,51.15
2022-11-10T12:19:10.949Z,54.72
2022-11-10T12:22:24.391Z,50.63
2022-11-10T12:25:54.348Z,47.80
2022-11-10T12:28:53.407Z,48.60
2022-11-10T12:31:43.827Z,46.83
2022-11-10T12:34:53.679Z,44.95
2022-11-10T12:37:53.665Z,45.65
2022-11-10T12:40:47.410Z,51.00
2022-11-10T12:43:55.311Z,48.47
2022-11-10T12:46:50.926Z,45.97
2022-11-10T12:50:01.941Z,55.50
2022-11-10T12:53:26.704Z,54.97
2022-11-10T12:56:37.159Z,48.47
2022-11-10T12:59:37.913Z,44.22
2022-11-10T13:02:42.561Z,47.08
2022-11-10T13:05:41.979Z,48.30
2022-11-10T13:08:43.196Z,42.78
2022-11-10T13:11:37.119Z,49.22
2022-11-10T13:14:29.930Z,40.90
2022-11-10T13:17:28.377Z,43.92
2022-11-10T13:20:39.025Z,43.40
2022-11-10T13:23:30.149Z,46.63
2022-11-10T13:26:40.880Z,45.47
2022-11-10T13:29:42.673Z,47.40
2022-11-10T13:32:33.093Z,48.95
2022-11-10T13:35:30.913Z,45.70
2022-11-10T13:38:43.557Z,50.97
2022-11-10T13:41:34.641Z,50.38
2022-11-10T13:44:39.885Z,45.33
2022-11-10T13:47:58.575Z,45.30
2022-11-10T13:51:13.387Z,48.25
2022-11-10T13:54:59.114Z,46.88
2022-11-10T13:58:04.370Z,48.08
2022-11-10T14:01:17.098Z,47.13
2022-11-10T14:04:04.804Z,48.30
2022-11-10T14:06:55.057Z,48.33
2022-11-10T14:09:47.753Z,50.22
2022-11-10T14:12:48.303Z,54.58
2022-11-10T14:15:49.010Z,47.75
2022-11-10T14:18:48.250Z,48.08
2022-11-10T14:21:55.358Z,48.75
2022-11-10T14:25:25.007Z,49.05
2022-11-10T14:28:33.307Z,48.25
2022-11-10T14:31:28.557Z,50.97
2022-11-10T14:34:18.674Z,52.45
2022-11-10T14:37:06.603Z,48.13
2022-11-10T14:39:59.691Z,49.75
2022-11-10T14:42:47.605Z,52.83
2022-11-10T14:45:33.467Z,50.40
2022-11-10T14:48:25.683Z,51.50
2022-11-10T14:51:19.142Z,53.60
2022-11-10T14:54:07.148Z,51.17
2022-11-10T14:56:55.207Z,53.03
2022-11-10T14:59:41.363Z,52.30
2022-11-10T15:05:15.677Z,55.08
2022-11-10T15:08:03.729Z,53.50
2022-11-10T15:10:53.191Z,53.03
2022-11-10T15:13:39.910Z,57.22
2022-11-10T15:16:38.503Z,58.50
2022-11-10T15:19:39.247Z,53.10
2022-11-10T15:22:34.571Z,56.70
2022-11-10T15:25:25.906Z,58.90
2022-11-10T15:28:38.028Z,61.88
2022-11-10T15:31:27.467Z,62.22
2022-11-10T15:34:41.726Z,62.47
2022-11-10T15:37:32.053Z,57.22
2022-11-10T15:40:42.720Z,59.88
2022-11-10T15:43:28.527Z,60.17
2022-11-10T15:46:24.664Z,65.63
2022-11-10T15:49:35.339Z,63.55
2022-11-10T15:52:23.455Z,65.32
2022-11-10T15:55:41.606Z,68.65
2022-11-10T15:58:28.013Z,67.13
2022-11-10T16:01:16.057Z,73.47
2022-11-10T16:04:02.376Z,73.35
2022-11-10T16:06:48.166Z,71.30
2022-11-10T16:09:34.072Z,70.90
2022-11-10T16:12:22.236Z,77.90
2022-11-10T16:15:19.362Z,74.03
2022-11-10T16:18:20.070Z,81.55
2022-11-10T16:21:06.704Z,71.63
2022-11-10T16:23:54.308Z,74.47
2022-11-10T16:26:40.148Z,74.80
2022-11-10T16:29:26.066Z,82.40
2022-11-10T16:32:12.310Z,83.55
2022-11-10T16:34:58.140Z,81.70
2022-11-10T16:37:44.013Z,81.85
2022-11-10T16:43:19.027Z,84.82
2022-11-10T16:46:17.879Z,76.70
2022-11-10T16:49:07.252Z,74.35
2022-11-10T16:51:53.225Z,82.15
2022-11-10T16:54:38.880Z,82.82
2022-11-10T16:57:25.111Z,87.60
2022-11-10T17:00:11.886Z,81.63
2022-11-10T17:03:06.620Z,79.72
2022-11-10T17:05:52.364Z,86.35
2022-11-10T17:08:38.043Z,85.20
2022-11-10T17:11:24.092Z,83.85
2022-11-10T17:14:12.913Z,81.70
2022-11-10T17:16:59.047Z,83.93
2022-11-10T17:22:36.445Z,85.60
2022-11-10T17:25:30.566Z,86.15
2022-11-10T17:28:18.843Z,85.80
2022-11-10T17:31:04.951Z,91.70
2022-11-10T17:33:50.947Z,92.78
2022-11-10T17:36:37.155Z,95.22
2022-11-10T17:39:23.023Z,88.63
2022-11-10T17:42:13.775Z,99.10
2022-11-10T17:44:59.543Z,102.00
2022-11-10T17:47:46.517Z,94.90
2022-11-10T17:50:33.530Z,101.10
2022-11-10T17:53:26.192Z,105.05
2022-11-10T17:56:12.577Z,102.20
2022-11-10T17:58:58.547Z,109.15
2022-11-10T18:01:44.575Z,113.90
2022-11-10T18:04:30.617Z,110.90
2022-11-10T18:07:16.663Z,103.43
2022-11-10T18:12:48.348Z,114.88
2022-11-10T18:18:20.573Z,119.53
2022-11-10T18:21:07.084Z,111.70
2022-11-10T18:23:52.916Z,119.93
2022-11-10T18:26:39.147Z,124.18
2022-11-10T18:32:10.894Z,120.82
2022-11-10T18:34:56.555Z,128.40
2022-11-10T18:37:42.420Z,117.57
2022-11-10T18:40:28.453Z,132.05
2022-11-10T18:43:14.152Z,130.20
2022-11-10T18:46:00.124Z,130.00
2022-11-10T18:48:47.014Z,137.45
2022-11-10T18:51:33.624Z,131.35
2022-11-10T18:54:19.619Z,127.18
2022-11-10T18:57:05.503Z,129.43
2022-11-10T18:59:51.579Z,121.72
2022-11-10T19:02:37.515Z,136.40
2022-11-10T19:08:09.296Z,119.20
2022-11-10T19:10:56.682Z,129.25
2022-11-10T19:13:43.488Z,134.63
2022-11-10T19:16:30.211Z,141.23
2022-11-10T19:19:16.118Z,133.85
2022-11-10T19:22:02.117Z,142.02
2022-11-10T19:25:07.037Z,138.02
2022-11-10T19:27:53.712Z,168.30
2022-11-10T19:30:40.058Z,166.63
2022-11-10T19:33:28.649Z,161.00
2022-11-10T19:36:22.441Z,174.82
2022-11-10T19:39:10.154Z,194.10
2022-11-10T19:41:56.079Z,177.98
2022-11-10T19:44:41.741Z,182.60
2022-11-10T19:47:29.965Z,175.75
2022-11-10T19:50:16.209Z,179.18
2022-11-10T19:53:05.167Z,178.27
2022-11-10T19:55:51.499Z,182.30
2022-11-10T20:01:26.303Z,202.90
2022-11-10T20:04:13.858Z,187.38
2022-11-10T20:07:18.313Z,195.75
2022-11-10T20:10:04.969Z,197.50
2022-11-10T20:12:50.512Z,202.98
2022-11-10T20:15:43.652Z,199.50
2022-11-10T20:18:30.556Z,163.52
2022-11-10T20:21:22.300Z,170.75
2022-11-10T20:24:09.345Z,159.60
2022-11-10T20:26:55.256Z,159.23
2022-11-10T20:29:43.190Z,167.15
2022-11-10T20:32:29.388Z,174.88
2022-11-10T20:35:16.520Z,185.30
2022-11-10T20:38:02.287Z,173.70
2022-11-10T20:40:48.398Z,157.23
2022-11-10T20:43:37.247Z,157.57
2022-11-10T20:49:29.659Z,177.43
2022-11-10T20:52:16.563Z,180.27
2022-11-10T20:55:05.460Z,197.18
2022-11-10T20:57:52.068Z,226.57
2022-11-10T21:00:41.441Z,223.50
2022-11-10T21:03:27.176Z,198.73
2022-11-10T21:06:13.060Z,215.75
2022-11-10T21:08:59.149Z,201.05
2022-11-10T21:12:05.052Z,190.38
2022-11-10T21:14:50.940Z,171.60
2022-11-10T21:17:41.514Z,180.68
2022-11-10T21:20:29.509Z,182.43
2022-11-10T21:26:01.753Z,155.23
2022-11-10T21:31:33.802Z,166.40
2022-11-10T21:34:19.415Z,161.52
2022-11-10T21:37:05.275Z,140.20
2022-11-10T21:39:50.955Z,138.18
2022-11-10T21:42:36.769Z,153.70
2022-11-10T21:45:22.797Z,133.38
2022-11-10T21:48:09.063Z,144.75
2022-11-10T21:51:00.906Z,130.10
2022-11-10T21:53:48.424Z,137.20
2022-11-10T21:56:34.380Z,140.18
2022-11-10T21:59:19.964Z,133.52
2022-11-10T22:02:06.394Z,122.97
2022-11-10T22:04:52.151Z,121.15
2022-11-10T22:07:38.910Z,126.60
2022-11-10T22:10:43.179Z,115.82
2022-11-10T22:13:47.591Z,119.32
2022-11-10T22:17:12.419Z,138.68
2022-11-10T22:19:58.408Z,141.50
2022-11-10T22:22:44.217Z,129.63
2022-11-10T22:25:29.979Z,127.80
2022-11-10T22:28:15.989Z,131.63
2022-11-10T22:31:04.147Z,129.65
2022-11-10T22:33:50.188Z,158.52
2022-11-10T22:36:35.986Z,144.93
2022-11-10T22:39:21.924Z,154.30
2022-11-10T22:42:30.944Z,159.35
2022-11-10T22:45:16.925Z,148.45
2022-11-10T22:48:21.090Z,135.93
2022-11-10T22:51:07.233Z,144.88
2022-11-10T22:53:53.099Z,150.90
2022-11-10T22:56:40.203Z,138.73
2022-11-10T22:59:25.974Z,129.73
2022-11-10T23:02:12.119Z,140.77
2022-11-10T23:04:58.110Z,145.43
2022-11-10T23:07:43.997Z,141.60
2022-11-10T23:10:29.876Z,143.52
2022-11-10T23:13:15.805Z,146.25
2022-11-10T23:16:11.127Z,152.93
2022-11-10T23:18:58.356Z,140.85
2022-11-10T23:21:44.115Z,134.85
2022-11-10T23:24:31.959Z,141.68
2022-11-10T23:27:17.925Z,134.95
2022-11-10T23:32:50.194Z,135.85
2022-11-10T23:35:36.296Z,124.00
2022-11-10T23:38:22.229Z,151.00
2022-11-10T23:44:00.784Z,140.18
2022-11-10T23:46:47.675Z,142.55
2022-11-10T23:49:33.606Z,132.60
2022-11-10T23:52:19.870Z,133.77
2022-11-10T23:57:52.383Z,130.10
